• Join FlightAware (Why Join?)
  • Login
  • US Flag 
09:38PM EST


 

Airport Tracker/Info


-or-


 

Live Flight TrackerFlight Track Log ✈ N182BB ✈ 15-Aug-2013 ✈ 7B2 - 7B3

Flight Track Log - Related Links

Times and Time Zones

All times are in EDT time to prevent confusion due to time zone crossing. See the N182BB flight status page for this flight to view local times or setup timezone preferences in your user account.

Time Position Orientation Groundspeed Altitude Reporting Facility
EDT Latitude Longitude Course Direction KTS MPH feet Rate Location/Type
02:15PM 42.3733 -72.5328 76° East 111 128 3,800  Level Boston Center
02:15PM 42.3775 -72.5103 76° East 112 129 4,300 840 Climbing Boston Center
02:16PM 42.3733 -72.4683 98° East 127 146 5,000 420 Climbing Boston Center
02:17PM 42.3817 -72.4175 77° East 142 163 5,100  Climbing Boston Center
02:18PM 42.4044 -72.3725 56° Northeast 148 170 5,100  Level Boston Center
02:19PM 42.4275 -72.3219 58° Northeast 148 170 5,100  Level Boston Center
02:20PM 42.4503 -72.2769 56° Northeast 148 170 5,100  Level Boston Center
02:21PM 42.4689 -72.2319 61° Northeast 148 170 5,100 -60 Level Boston Center
02:22PM 42.4878 -72.1953 55° Northeast 148 170 5,000 -60 Descending Boston Center
02:23PM 42.5147 -72.1386 57° Northeast 140 161 5,000  Level Boston Center
02:24PM 42.5417 -72.0933 51° Northeast 140 161 5,000  Level Boston Center
02:25PM 42.5644 -72.0456 57° Northeast 140 161 5,100  Climbing Boston Center
02:26PM 42.5914 -72.0086 45° Northeast 140 161 5,000  Descending Boston Center
02:27PM 42.6225 -71.9603 49° Northeast 140 161 5,100  Climbing Boston Center
02:28PM 42.6431 -71.9208 55° Northeast 134 154 5,100  Level Boston Center
02:29PM 42.6617 -71.8669 65° Northeast 134 154 5,100  Level Boston Center
02:30PM 42.6717 -71.8189 74° East 134 154 5,100  Level Boston Center
02:31PM 42.6881 -71.7594 69° East 146 168 5,100  Level Boston Center
02:32PM 42.7003 -71.7142 70° East 146 168 5,100  Level Boston Center
02:33PM 42.7167 -71.6572 69° East 146 168 5,100  Level Boston Center
02:34PM 42.7308 -71.6064 69° East 152 175 5,100  Level Boston Center
02:35PM 42.7450 -71.5522 70° East 147 169 5,100  Level Boston Center
02:36PM 42.7592 -71.5042 68° East 147 169 5,100  Level Boston Center
02:37PM 42.7733 -71.4472 71° East 147 169 5,100  Level Boston Center
02:38PM 42.7875 -71.3989 68° East 147 169 5,100  Level Boston Center
02:39PM 42.7994 -71.3536 70° East 147 169 5,100  Level Boston Center
02:40PM 42.8156 -71.2967 69° East 147 169 5,100  Level Boston Center
02:41PM 42.8358 -71.2425 63° Northeast 147 169 5,100 -420 Level Boston Center
02:43PM 42.8833 -71.1333 59° Northeast 165 190 4,000 -660 Descending KA90
02:44PM 42.9000 -71.0833 66° East 163 188 3,300 -660 Descending KA90
02:45PM 42.9167 -71.0333 66° East 159 183 2,700 -600 Descending KA90
02:47PM 42.9270 -70.9610 79° East  Level FlightAware Approximate
02:54PM 42.9500 -70.8167 77° East  Level FlightAware Approximate
02:55PM 42.9626 -70.8287 77° East  Level Estimated
02:56PM 42.9626 -70.8287 77° East  Level Estimated